createdAt,value
2023-04-18T00:00:52.960Z,23.90
2023-04-18T00:03:22.169Z,20.58
2023-04-18T00:05:49.961Z,23.38
2023-04-18T00:08:17.640Z,21.35
2023-04-18T00:10:45.224Z,22.17
2023-04-18T00:13:12.744Z,21.50
2023-04-18T00:15:42.061Z,20.33
2023-04-18T00:18:10.555Z,28.67
2023-04-18T00:20:39.336Z,24.90
2023-04-18T00:23:07.939Z,27.98
2023-04-18T00:25:35.551Z,26.00
2023-04-18T00:28:03.272Z,26.50
2023-04-18T00:30:34.085Z,18.15
2023-04-18T00:33:01.973Z,27.30
2023-04-18T00:35:29.873Z,18.58
2023-04-18T00:37:57.589Z,21.13
2023-04-18T00:40:25.658Z,23.45
2023-04-18T00:42:53.702Z,20.15
2023-04-18T00:45:21.318Z,19.50
2023-04-18T00:47:48.978Z,22.02
2023-04-18T00:50:16.985Z,19.67
2023-04-18T00:52:45.858Z,20.45
2023-04-18T00:55:13.724Z,23.92
2023-04-18T00:57:42.009Z,18.27
2023-04-18T01:00:12.750Z,25.17
2023-04-18T01:02:41.311Z,19.90
2023-04-18T01:05:09.990Z,21.98
2023-04-18T01:07:41.813Z,22.98
2023-04-18T01:10:11.087Z,25.52
2023-04-18T01:12:38.692Z,24.35
2023-04-18T01:15:07.047Z,22.75
2023-04-18T01:17:36.413Z,18.02
2023-04-18T01:20:06.465Z,20.15
2023-04-18T01:22:34.564Z,25.45
2023-04-18T01:25:08.564Z,21.73
2023-04-18T01:27:36.262Z,24.45
2023-04-18T01:30:04.319Z,20.60
2023-04-18T01:32:33.240Z,27.38
2023-04-18T01:35:00.830Z,21.30
2023-04-18T01:37:28.558Z,24.25
2023-04-18T01:39:58.475Z,26.27
2023-04-18T01:42:26.188Z,28.00
2023-04-18T01:44:53.721Z,21.95
2023-04-18T01:47:21.481Z,24.08
2023-04-18T01:49:49.081Z,23.20
2023-04-18T01:52:17.527Z,22.63
2023-04-18T01:54:45.209Z,27.30
2023-04-18T01:57:13.288Z,29.17
2023-04-18T01:59:40.987Z,22.10
2023-04-18T02:02:08.934Z,24.95
2023-04-18T02:04:36.849Z,24.83
2023-04-18T02:07:04.886Z,29.08
2023-04-18T02:09:32.460Z,27.80
2023-04-18T02:12:02.907Z,27.60
2023-04-18T02:14:32.764Z,28.33
2023-04-18T02:17:01.418Z,23.33
2023-04-18T02:19:30.676Z,20.15
2023-04-18T02:21:58.314Z,33.42
2023-04-18T02:24:25.877Z,26.33
2023-04-18T02:26:53.739Z,27.50
2023-04-18T02:29:21.460Z,27.13
2023-04-18T02:31:49.075Z,25.58
2023-04-18T02:34:17.134Z,29.67
2023-04-18T02:36:44.833Z,26.20
2023-04-18T02:39:12.445Z,28.27
2023-04-18T02:41:40.097Z,25.77
2023-04-18T02:44:09.197Z,25.77
2023-04-18T02:46:39.810Z,22.55
2023-04-18T02:49:12.271Z,23.10
2023-04-18T02:51:39.977Z,36.50
2023-04-18T02:54:07.592Z,25.92
2023-04-18T02:56:49.600Z,27.40
2023-04-18T02:59:22.552Z,27.13
2023-04-18T03:02:22.806Z,26.40
2023-04-18T03:04:56.573Z,38.83
2023-04-18T03:07:24.658Z,28.60
2023-04-18T03:09:53.135Z,30.63
2023-04-18T03:12:28.182Z,28.05
2023-04-18T03:14:55.923Z,30.98
2023-04-18T03:17:23.725Z,28.38
2023-04-18T03:19:51.139Z,22.77
2023-04-18T03:22:21.040Z,21.63
2023-04-18T03:24:54.509Z,22.50
2023-04-18T03:27:25.796Z,24.70
2023-04-18T03:29:53.552Z,23.30
2023-04-18T03:32:21.181Z,24.75
2023-04-18T03:34:49.507Z,26.52
2023-04-18T03:37:17.133Z,27.90
2023-04-18T03:39:50.375Z,28.38
2023-04-18T03:42:18.154Z,23.67
2023-04-18T03:44:45.689Z,22.65
2023-04-18T03:47:14.969Z,23.85
2023-04-18T03:49:45.615Z,24.42
2023-04-18T03:52:13.548Z,23.17
2023-04-18T03:54:42.567Z,26.08
2023-04-18T03:57:10.263Z,17.92
2023-04-18T03:59:38.661Z,26.80
2023-04-18T04:02:08.099Z,33.90
2023-04-18T04:04:36.194Z,25.88
2023-04-18T04:07:04.093Z,25.23
2023-04-18T04:09:31.841Z,25.35
2023-04-18T04:12:02.438Z,23.40
2023-04-18T04:14:31.022Z,29.58
2023-04-18T04:16:58.722Z,21.73
2023-04-18T04:19:26.241Z,24.50
2023-04-18T04:22:05.909Z,21.90
2023-04-18T04:24:34.068Z,19.67
2023-04-18T04:27:04.004Z,21.77
2023-04-18T04:29:35.592Z,20.23
2023-04-18T04:32:05.848Z,26.02
2023-04-18T04:34:37.847Z,23.70
2023-04-18T04:37:08.613Z,21.45
2023-04-18T04:39:43.951Z,20.20
2023-04-18T04:42:30.335Z,21.55
2023-04-18T04:45:08.447Z,21.08
2023-04-18T04:47:37.203Z,20.02
2023-04-18T04:50:07.679Z,24.25
2023-04-18T04:52:35.799Z,18.63
2023-04-18T04:55:04.453Z,25.88
2023-04-18T04:57:32.572Z,19.52
2023-04-18T05:00:01.379Z,20.90
2023-04-18T05:02:31.298Z,24.67
2023-04-18T05:04:59.013Z,25.73
2023-04-18T05:07:27.029Z,36.15
2023-04-18T05:09:54.509Z,26.08
2023-04-18T05:12:22.253Z,23.92
2023-04-18T05:14:50.083Z,25.73
2023-04-18T05:17:17.523Z,29.45
2023-04-18T05:19:45.474Z,26.25
2023-04-18T05:22:13.075Z,23.70
2023-04-18T05:24:41.405Z,28.35
2023-04-18T05:27:10.059Z,32.08
2023-04-18T05:29:37.591Z,39.30
2023-04-18T05:32:05.359Z,32.00
2023-04-18T05:34:38.025Z,28.40
2023-04-18T05:37:06.650Z,27.48
2023-04-18T05:39:34.325Z,34.20
2023-04-18T05:42:02.564Z,26.58
2023-04-18T05:44:30.700Z,37.20
2023-04-18T05:46:58.833Z,30.02
2023-04-18T05:49:26.478Z,21.10
2023-04-18T05:51:54.642Z,24.40
2023-04-18T05:54:22.758Z,21.33
2023-04-18T05:56:51.749Z,31.92
2023-04-18T05:59:20.762Z,33.55
2023-04-18T06:01:50.057Z,27.42
2023-04-18T06:04:20.295Z,26.67
2023-04-18T06:06:48.883Z,31.48
2023-04-18T06:09:16.789Z,32.83
2023-04-18T06:11:44.584Z,26.30
2023-04-18T06:14:12.494Z,30.40
2023-04-18T06:16:41.015Z,33.63
2023-04-18T06:19:09.121Z,31.08
2023-04-18T06:21:36.694Z,30.55
2023-04-18T06:24:04.624Z,34.00
2023-04-18T06:26:32.835Z,28.52
2023-04-18T06:29:00.690Z,33.00
2023-04-18T06:31:28.983Z,42.65
2023-04-18T06:33:59.658Z,25.42
2023-04-18T06:36:27.825Z,28.80
2023-04-18T06:38:55.829Z,31.58
2023-04-18T06:41:23.930Z,34.35
2023-04-18T06:44:14.597Z,34.85
2023-04-18T06:46:39.690Z,34.10
2023-04-18T06:49:07.493Z,33.70
2023-04-18T06:51:35.606Z,28.48
2023-04-18T06:54:03.341Z,25.55
2023-04-18T06:56:31.666Z,38.03
2023-04-18T06:58:59.606Z,30.73
2023-04-18T07:01:27.604Z,34.08
2023-04-18T07:03:55.859Z,38.22
2023-04-18T07:06:23.753Z,27.40
2023-04-18T07:08:53.933Z,31.63
2023-04-18T07:11:23.866Z,29.02
2023-04-18T07:13:51.698Z,27.92
2023-04-18T07:16:19.322Z,32.75
2023-04-18T07:18:47.305Z,34.90
2023-04-18T07:21:15.181Z,29.63
2023-04-18T07:23:43.149Z,27.23
2023-04-18T07:26:13.477Z,35.40
2023-04-18T07:28:41.559Z,30.23
2023-04-18T07:31:11.880Z,40.80
2023-04-18T07:33:39.939Z,34.25
2023-04-18T07:36:07.909Z,24.83
2023-04-18T07:38:36.073Z,28.02
2023-04-18T07:41:03.726Z,34.50
2023-04-18T07:43:31.682Z,26.08
2023-04-18T07:45:59.580Z,26.35
2023-04-18T07:48:27.514Z,27.67
2023-04-18T07:50:55.375Z,31.60
2023-04-18T07:53:23.198Z,23.85
2023-04-18T07:55:51.173Z,32.38
2023-04-18T07:58:19.091Z,27.45
2023-04-18T08:00:46.792Z,26.05
2023-04-18T08:03:14.865Z,25.33
2023-04-18T08:05:43.771Z,29.70
2023-04-18T08:08:12.224Z,29.20
2023-04-18T08:10:39.806Z,23.92
2023-04-18T08:13:08.454Z,27.77
2023-04-18T08:15:36.416Z,24.52
2023-04-18T08:18:04.289Z,24.83
2023-04-18T08:20:32.225Z,22.92
2023-04-18T08:23:06.284Z,22.98
2023-04-18T08:25:36.709Z,20.45
2023-04-18T08:28:04.622Z,19.73
2023-04-18T08:30:32.317Z,21.77
2023-04-18T08:33:00.941Z,22.10
2023-04-18T08:35:29.012Z,28.83
2023-04-18T08:37:56.869Z,22.17
2023-04-18T08:40:24.912Z,16.27
2023-04-18T08:42:53.993Z,17.88
2023-04-18T08:45:21.548Z,22.67
2023-04-18T08:47:49.588Z,20.63
2023-04-18T08:50:17.508Z,20.70
2023-04-18T08:52:49.649Z,16.95
2023-04-18T08:55:19.230Z,19.92
2023-04-18T08:57:47.744Z,20.63
2023-04-18T09:00:18.171Z,22.80
2023-04-18T09:02:47.429Z,18.08
2023-04-18T09:05:20.258Z,22.75
2023-04-18T09:07:51.704Z,22.10
2023-04-18T09:10:29.114Z,14.63
2023-04-18T09:12:58.468Z,23.55
2023-04-18T09:15:27.509Z,11.80
2023-04-18T09:17:58.071Z,17.70
2023-04-18T09:20:41.551Z,16.65
2023-04-18T09:23:11.357Z,17.65
2023-04-18T09:25:44.784Z,19.08
2023-04-18T09:28:30.978Z,12.70
2023-04-18T09:31:10.338Z,12.02
2023-04-18T09:33:38.742Z,15.32
2023-04-18T09:36:19.970Z,13.90
2023-04-18T09:38:48.935Z,19.67
2023-04-18T09:41:19.842Z,15.15
2023-04-18T09:43:49.306Z,11.93
2023-04-18T09:46:17.987Z,14.88
2023-04-18T09:48:45.720Z,12.55
2023-04-18T09:51:16.984Z,9.48
2023-04-18T09:53:47.645Z,10.27
2023-04-18T09:56:26.459Z,17.70
2023-04-18T09:59:03.949Z,10.50
2023-04-18T10:01:31.851Z,17.45
2023-04-18T10:04:03.819Z,15.90
2023-04-18T10:06:40.047Z,14.73
2023-04-18T10:09:10.144Z,14.15
2023-04-18T10:11:38.480Z,12.05
2023-04-18T10:14:13.297Z,11.10
2023-04-18T10:16:42.419Z,16.42
2023-04-18T10:19:30.251Z,14.65
2023-04-18T10:21:59.516Z,12.02
2023-04-18T10:24:57.162Z,10.80
2023-04-18T10:27:49.561Z,19.40
2023-04-18T10:30:18.574Z,19.67
2023-04-18T10:32:47.209Z,15.18
2023-04-18T10:35:15.062Z,20.48
2023-04-18T10:37:52.404Z,20.92
2023-04-18T10:40:40.290Z,19.92
2023-04-18T10:43:08.043Z,15.38
2023-04-18T10:45:36.765Z,14.45
2023-04-18T10:48:30.231Z,15.35
2023-04-18T10:51:24.357Z,14.13
2023-04-18T10:53:57.782Z,10.82
2023-04-18T10:56:28.258Z,16.23
2023-04-18T10:59:00.514Z,19.30
2023-04-18T11:01:32.769Z,19.85
2023-04-18T11:04:01.615Z,17.38
2023-04-18T11:06:30.646Z,12.27
2023-04-18T11:09:14.377Z,24.13
2023-04-18T11:11:43.540Z,14.90
2023-04-18T11:14:11.678Z,10.90
2023-04-18T11:16:40.614Z,16.92
2023-04-18T11:19:23.827Z,12.25
2023-04-18T11:21:52.112Z,12.18
2023-04-18T11:24:24.537Z,9.65
2023-04-18T11:26:56.421Z,15.52
2023-04-18T11:29:24.170Z,11.98
2023-04-18T11:31:56.684Z,5.70
2023-04-18T11:34:33.466Z,11.15
2023-04-18T11:37:01.707Z,11.00
2023-04-18T11:39:29.746Z,13.57
2023-04-18T11:41:59.688Z,5.85
2023-04-18T11:44:27.444Z,7.97
2023-04-18T11:46:55.337Z,10.57
2023-04-18T11:49:30.966Z,11.65
2023-04-18T11:52:00.068Z,10.15
2023-04-18T11:54:44.414Z,10.82
2023-04-18T11:57:22.466Z,9.40
2023-04-18T12:00:00.990Z,11.23
2023-04-18T12:02:42.867Z,13.02
2023-04-18T12:05:15.325Z,12.38
2023-04-18T12:07:46.011Z,13.30
2023-04-18T12:10:23.568Z,12.77
2023-04-18T12:12:53.350Z,9.00
2023-04-18T12:15:24.371Z,14.93
2023-04-18T12:17:52.359Z,8.85
2023-04-18T12:20:20.336Z,11.00
2023-04-18T12:22:49.818Z,9.07
2023-04-18T12:25:29.268Z,16.95
2023-04-18T12:28:02.207Z,9.45
2023-04-18T12:30:37.567Z,6.55
2023-04-18T12:33:05.678Z,12.25
2023-04-18T12:35:33.319Z,10.63
2023-04-18T12:38:02.491Z,4.43
2023-04-18T12:40:30.710Z,6.75
2023-04-18T12:42:58.295Z,5.32
2023-04-18T12:45:26.119Z,9.23
2023-04-18T12:47:53.958Z,10.38
2023-04-18T12:50:24.048Z,10.05
2023-04-18T12:52:59.259Z,7.10
2023-04-18T12:55:27.263Z,11.25
2023-04-18T12:57:56.108Z,6.22
2023-04-18T13:00:26.438Z,6.65
2023-04-18T13:02:54.846Z,6.15
2023-04-18T13:05:24.762Z,6.13
2023-04-18T13:07:56.358Z,7.07
2023-04-18T13:10:32.661Z,8.95
2023-04-18T13:13:00.347Z,9.30
2023-04-18T13:15:28.047Z,5.47
2023-04-18T13:17:58.639Z,6.47
2023-04-18T13:20:26.926Z,6.95
2023-04-18T13:22:54.529Z,6.57
2023-04-18T13:25:22.399Z,7.35
2023-04-18T13:27:53.104Z,10.55
2023-04-18T13:30:21.325Z,4.97
2023-04-18T13:32:48.918Z,6.97
2023-04-18T13:35:16.538Z,8.75
2023-04-18T13:37:44.187Z,8.18
2023-04-18T13:40:12.154Z,4.03
2023-04-18T13:42:39.858Z,8.93
2023-04-18T13:45:07.843Z,4.55
2023-04-18T13:47:36.089Z,7.82
2023-04-18T13:50:04.276Z,5.10
2023-04-18T13:52:32.000Z,11.45
2023-04-18T13:54:59.815Z,5.25
2023-04-18T13:57:28.632Z,8.70
2023-04-18T13:59:56.170Z,7.97
2023-04-18T14:02:23.670Z,8.32
2023-04-18T14:04:52.545Z,4.05
2023-04-18T14:07:20.120Z,5.50
2023-04-18T14:09:48.350Z,6.63
2023-04-18T14:12:16.013Z,6.13
2023-04-18T14:14:43.730Z,4.47
2023-04-18T14:17:11.664Z,4.72
2023-04-18T14:19:39.154Z,5.53
2023-04-18T14:22:07.997Z,5.60
2023-04-18T14:24:36.553Z,11.25
2023-04-18T14:27:04.113Z,3.60
2023-04-18T14:29:31.931Z,7.90
2023-04-18T14:31:59.472Z,6.53
2023-04-18T14:34:26.934Z,5.35
2023-04-18T14:36:54.702Z,6.45
2023-04-18T14:39:22.299Z,7.78
2023-04-18T14:41:50.029Z,4.03
2023-04-18T14:44:17.814Z,9.15
2023-04-18T14:46:45.369Z,4.72
2023-04-18T14:49:13.222Z,2.65
2023-04-18T14:51:41.113Z,3.50
2023-04-18T14:54:08.660Z,8.13
2023-04-18T14:56:36.443Z,11.18
2023-04-18T14:59:04.162Z,6.70
2023-04-18T15:01:31.829Z,7.38
2023-04-18T15:03:59.795Z,5.65
2023-04-18T15:06:27.502Z,8.45
2023-04-18T15:08:55.192Z,5.15
2023-04-18T15:11:23.421Z,4.43
2023-04-18T15:13:51.032Z,7.75
2023-04-18T15:16:18.680Z,7.78
2023-04-18T15:18:46.392Z,5.38
2023-04-18T15:21:15.430Z,8.75
2023-04-18T15:23:42.972Z,7.60
2023-04-18T15:26:10.368Z,6.68
2023-04-18T15:28:37.785Z,8.95
2023-04-18T15:31:07.175Z,11.15
2023-04-18T15:33:34.756Z,7.25
2023-04-18T15:36:02.847Z,8.68
2023-04-18T15:38:33.001Z,7.13
2023-04-18T15:41:00.902Z,9.70
2023-04-18T15:43:28.532Z,9.20
2023-04-18T15:45:56.148Z,14.55
2023-04-18T15:48:23.875Z,7.38
2023-04-18T15:50:52.500Z,9.98
2023-04-18T15:53:20.695Z,11.73
2023-04-18T15:55:48.370Z,13.55
2023-04-18T15:58:15.964Z,15.95
2023-04-18T16:00:44.540Z,11.85
2023-04-18T16:03:12.515Z,12.68
2023-04-18T16:05:40.110Z,10.38
2023-04-18T16:08:09.267Z,10.30
2023-04-18T16:10:38.171Z,15.80
2023-04-18T16:13:06.874Z,9.95
2023-04-18T16:15:41.607Z,13.50
2023-04-18T16:18:09.384Z,13.77
2023-04-18T16:20:37.212Z,15.43
2023-04-18T16:23:05.035Z,20.15
2023-04-18T16:25:32.624Z,13.52
2023-04-18T16:28:00.140Z,21.55
2023-04-18T16:30:27.669Z,11.23
2023-04-18T16:32:55.788Z,18.45
2023-04-18T16:35:23.850Z,17.77
2023-04-18T16:37:51.494Z,19.42
2023-04-18T16:40:19.228Z,13.10
2023-04-18T16:42:47.146Z,22.25
2023-04-18T16:45:15.059Z,14.02
2023-04-18T16:47:42.728Z,12.38
2023-04-18T16:50:10.358Z,11.90
2023-04-18T16:52:38.079Z,17.70
2023-04-18T16:55:06.905Z,20.92
2023-04-18T16:57:34.537Z,20.40
2023-04-18T17:00:03.095Z,15.38
2023-04-18T17:02:33.188Z,15.45
2023-04-18T17:05:01.077Z,14.90
2023-04-18T17:07:28.701Z,16.27
2023-04-18T17:09:56.156Z,14.98
2023-04-18T17:12:23.885Z,17.60
2023-04-18T17:14:51.655Z,16.70
2023-04-18T17:17:19.394Z,21.70
2023-04-18T17:19:47.216Z,10.38
2023-04-18T17:22:14.835Z,19.52
2023-04-18T17:24:42.594Z,14.25
2023-04-18T17:27:10.300Z,13.85
2023-04-18T17:29:37.786Z,14.98
2023-04-18T17:32:05.706Z,12.15
2023-04-18T17:34:33.127Z,7.35
2023-04-18T17:37:00.634Z,7.88
2023-04-18T17:39:28.516Z,10.15
2023-04-18T17:41:56.535Z,10.88
2023-04-18T17:44:24.348Z,10.93
2023-04-18T17:46:52.405Z,16.52
2023-04-18T17:49:21.330Z,14.10
2023-04-18T17:51:49.030Z,10.77
2023-04-18T17:54:16.678Z,15.65
2023-04-18T17:56:45.764Z,14.98
2023-04-18T17:59:13.676Z,19.42
2023-04-18T18:01:41.472Z,10.68
2023-04-18T18:04:09.951Z,15.85
2023-04-18T18:06:37.882Z,11.02
2023-04-18T18:09:05.771Z,12.45
2023-04-18T18:11:33.272Z,12.15
2023-04-18T18:14:01.610Z,13.88
2023-04-18T18:16:29.431Z,10.00
2023-04-18T18:18:58.531Z,12.45
2023-04-18T18:21:26.449Z,9.63
2023-04-18T18:23:54.154Z,10.80
2023-04-18T18:26:21.860Z,12.30
2023-04-18T18:28:49.838Z,13.38
2023-04-18T18:31:19.901Z,11.32
2023-04-18T18:33:47.851Z,11.73
2023-04-18T18:36:15.478Z,12.57
2023-04-18T18:38:43.407Z,10.43
2023-04-18T18:41:11.246Z,11.70
2023-04-18T18:43:39.223Z,12.57
2023-04-18T18:46:06.807Z,10.00
2023-04-18T18:48:38.237Z,12.65
2023-04-18T18:51:05.966Z,9.07
2023-04-18T18:53:34.145Z,12.82
2023-04-18T18:56:02.160Z,13.32
2023-04-18T18:58:30.034Z,9.43
2023-04-18T19:00:59.086Z,11.02
2023-04-18T19:03:27.105Z,10.15
2023-04-18T19:05:56.716Z,13.40
2023-04-18T19:08:24.479Z,12.68
2023-04-18T19:10:52.320Z,12.25
2023-04-18T19:13:25.473Z,8.50
2023-04-18T19:15:53.191Z,13.10
2023-04-18T19:18:21.714Z,8.68
2023-04-18T19:20:55.962Z,16.52
2023-04-18T19:23:25.662Z,8.95
2023-04-18T19:25:53.817Z,12.93
2023-04-18T19:28:22.727Z,11.52
2023-04-18T19:30:50.766Z,10.38
2023-04-18T19:33:19.965Z,11.75
2023-04-18T19:35:47.513Z,18.58
2023-04-18T19:38:15.626Z,16.23
2023-04-18T19:40:43.436Z,11.57
2023-04-18T19:43:11.389Z,14.88
2023-04-18T19:45:43.129Z,14.60
2023-04-18T19:48:11.090Z,11.88
2023-04-18T19:50:42.686Z,16.42
2023-04-18T19:53:11.423Z,14.77
2023-04-18T19:55:39.482Z,18.05
2023-04-18T19:58:07.408Z,17.73
2023-04-18T20:00:35.454Z,14.48
2023-04-18T20:03:03.788Z,14.57
2023-04-18T20:05:31.863Z,14.20
2023-04-18T20:07:59.668Z,16.70
2023-04-18T20:10:27.712Z,12.10
2023-04-18T20:13:02.729Z,14.63
2023-04-18T20:15:33.733Z,13.88
2023-04-18T20:18:02.022Z,16.17
2023-04-18T20:20:30.290Z,17.17
2023-04-18T20:22:58.552Z,18.42
2023-04-18T20:25:26.752Z,18.70
2023-04-18T20:27:55.010Z,16.98
2023-04-18T20:30:23.395Z,17.88
2023-04-18T20:32:51.677Z,18.13
2023-04-18T20:35:20.286Z,10.30
2023-04-18T20:37:50.061Z,22.05
2023-04-18T20:40:18.849Z,11.27
2023-04-18T20:42:47.242Z,17.42
2023-04-18T20:45:15.735Z,14.88
2023-04-18T20:47:44.329Z,11.88
2023-04-18T20:50:14.382Z,13.20
2023-04-18T20:52:43.182Z,15.48
2023-04-18T20:55:11.359Z,13.68
2023-04-18T20:57:39.180Z,16.73
2023-04-18T21:00:08.449Z,13.77
2023-04-18T21:02:36.764Z,15.50
2023-04-18T21:05:04.934Z,24.10
2023-04-18T21:07:32.882Z,16.52
2023-04-18T21:10:00.709Z,11.80
2023-04-18T21:12:28.493Z,11.48
2023-04-18T21:14:56.541Z,15.23
2023-04-18T21:17:25.766Z,11.52
2023-04-18T21:19:53.651Z,14.73
2023-04-18T21:22:21.341Z,18.35
2023-04-18T21:24:49.286Z,12.85
2023-04-18T21:27:16.987Z,21.42
2023-04-18T21:29:44.808Z,23.35
2023-04-18T21:32:12.535Z,21.48
2023-04-18T21:34:40.208Z,18.05
2023-04-18T21:37:08.110Z,15.10
2023-04-18T21:39:38.278Z,16.58
2023-04-18T21:42:06.034Z,16.20
2023-04-18T21:44:33.809Z,12.90
2023-04-18T21:47:01.402Z,22.55
2023-04-18T21:49:29.429Z,20.25
2023-04-18T21:51:57.030Z,16.35
2023-04-18T21:54:25.024Z,15.50
2023-04-18T21:56:52.701Z,14.45
2023-04-18T21:59:21.180Z,22.75
2023-04-18T22:01:48.784Z,24.33
2023-04-18T22:04:21.286Z,18.17
2023-04-18T22:06:49.097Z,22.52
2023-04-18T22:09:19.583Z,13.88
2023-04-18T22:11:47.707Z,22.00
2023-04-18T22:14:16.785Z,20.02
2023-04-18T22:16:45.143Z,16.48
2023-04-18T22:19:14.401Z,21.80
2023-04-18T22:21:45.169Z,24.27
2023-04-18T22:24:13.144Z,23.85
2023-04-18T22:26:41.244Z,15.38
2023-04-18T22:29:08.898Z,16.48
2023-04-18T22:31:36.784Z,19.00
2023-04-18T22:34:05.081Z,22.05
2023-04-18T22:36:32.815Z,20.90
2023-04-18T22:39:00.763Z,22.83
2023-04-18T22:41:28.553Z,18.85
2023-04-18T22:43:56.125Z,24.27
2023-04-18T22:46:23.885Z,23.10
2023-04-18T22:48:51.558Z,29.00
2023-04-18T22:51:20.388Z,26.00
2023-04-18T22:53:48.381Z,26.85
2023-04-18T22:56:16.994Z,20.02
2023-04-18T22:58:44.562Z,23.25
2023-04-18T23:01:12.391Z,23.75
2023-04-18T23:03:40.256Z,17.80
2023-04-18T23:06:08.670Z,21.58
2023-04-18T23:08:36.763Z,18.40
2023-04-18T23:11:04.607Z,17.95
2023-04-18T23:13:32.297Z,26.20
2023-04-18T23:16:00.288Z,27.42
2023-04-18T23:18:31.339Z,24.48
2023-04-18T23:21:01.097Z,23.92
2023-04-18T23:23:29.136Z,19.90
2023-04-18T23:25:57.152Z,25.63
2023-04-18T23:28:24.841Z,25.33
2023-04-18T23:30:52.890Z,23.90
2023-04-18T23:33:20.980Z,21.30
2023-04-18T23:35:48.656Z,34.80
2023-04-18T23:38:16.483Z,19.90
2023-04-18T23:40:44.137Z,21.20
2023-04-18T23:43:12.373Z,18.40
2023-04-18T23:45:40.291Z,18.08
2023-04-18T23:48:08.061Z,18.65
2023-04-18T23:50:55.092Z,25.10
2023-04-18T23:53:23.600Z,22.13
2023-04-18T23:55:51.776Z,32.65
2023-04-18T23:58:19.464Z,23.98
